This is the latest recevied weather packets stored in our database for station/object SP8C-10. If no packets are shown the sender has not sent any weather packets the latest 10 day(s).
| Time | Temp. | Humidity | Pressure | Rain* | Wind** | Luminosity | Snow |
|---|---|---|---|---|---|---|---|
| 1788664643 | 22.22° C | 41% | 1019.5 hPa | - | - | - | - |
| 1788662843 | 22.22° C | 40% | 1019.4 hPa | - | - | - | - |
| 1788661042 | 22.22° C | 40% | 1019.2 hPa | - | - | - | - |
| 1788659242 | 22.78° C | 40% | 1019.2 hPa | - | - | - | - |
| 1788657442 | 22.78° C | 40% | 1018.9 hPa | - | - | - | - |
| 1788655642 | 22.78° C | 38% | 1018.9 hPa | - | - | - | - |
| 1788653842 | 23.33° C | 38% | 1018.6 hPa | - | - | - | - |
| 1788646641 | 24.44° C | 36% | 1018.4 hPa | - | - | - | - |
| 1788644841 | 25° C | 33% | 1018 hPa | - | - | - | - |
| 1788643041 | 26.11° C | 31% | 1017.4 hPa | - | - | - | - |
| 1788641241 | 26.67° C | 31% | 1017.4 hPa | - | - | - | - |
| 1788639440 | 27.22° C | 31% | 1017.3 hPa | - | - | - | - |
| 1788635840 | 27.78° C | 30% | 1017.1 hPa | - | - | - | - |
| 1788632240 | 28.33° C | 28% | 1017.4 hPa | - | - | - | - |
| 1788630440 | 29.44° C | 27% | 1016.8 hPa | - | - | - | - |
| 1788628640 | 30° C | 26% | 1016.5 hPa | - | - | - | - |
| 1788621445 | 30.56° C | 28% | 1015.9 hPa | - | - | - | - |
| 1788619645 | 30.56° C | 29% | 1015.6 hPa | - | - | - | - |
| 1788617845 | 30.56° C | 29% | 1015.4 hPa | - | - | - | - |
| 1788616045 | 30.56° C | 30% | 1015.4 hPa | - | - | - | - |
| 1788614244 | 30° C | 31% | 1015.3 hPa | - | - | - | - |
| 1788610644 | 28.33° C | 35% | 1015.6 hPa | - | - | - | - |
| 1788608844 | 27.78° C | 36% | 1015.8 hPa | - | - | - | - |
| 1788607044 | 27.78° C | 38% | 1015.8 hPa | - | - | - | - |
| 1788605244 | 27.22° C | 39% | 1015.8 hPa | - | - | - | - |
* Rain since midnight (hover to see other rain measurements)
** Current wind speed in m/s (hover to see current wind gust speed)